createdAt,value
2019-02-23T00:01:22.206Z,103476.83
2019-02-23T00:03:51.404Z,103469.63
2019-02-23T00:06:29.312Z,103478.28
2019-02-23T00:08:51.842Z,103489.16
2019-02-23T00:11:21.051Z,103474.41
2019-02-23T00:13:50.337Z,103480.45
2019-02-23T00:16:19.745Z,103471.96
2019-02-23T00:18:49.067Z,103467.34
2019-02-23T00:21:18.275Z,103464.38
2019-02-23T00:23:47.629Z,103454.05
2019-02-23T00:26:16.841Z,103442.22
2019-02-23T00:28:46.117Z,103434.47
2019-02-23T00:31:15.428Z,103434.47
2019-02-23T00:33:44.669Z,103441.47
2019-02-23T00:36:13.872Z,103414.73
2019-02-23T00:38:43.346Z,103424.31
2019-02-23T00:41:12.584Z,103423.19
2019-02-23T00:43:42.075Z,103422.44
2019-02-23T00:46:11.549Z,103416.73
2019-02-23T00:48:40.745Z,103417.81
2019-02-23T00:51:10.043Z,103403.61
2019-02-23T00:53:39.377Z,103401.77
2019-02-23T00:56:08.590Z,103394.94
2019-02-23T00:58:37.775Z,103393.27
2019-02-23T01:01:07.173Z,103403.77
2019-02-23T01:03:36.426Z,103392.52
2019-02-23T01:06:05.675Z,103390.31
2019-02-23T01:08:35.071Z,103392.15
2019-02-23T01:11:04.279Z,103371.11
2019-02-23T01:13:33.484Z,103380.53
2019-02-23T01:16:03.046Z,103373.70
2019-02-23T01:18:32.330Z,103366.48
2019-02-23T01:21:01.544Z,103353.57
2019-02-23T01:23:31.054Z,103343.78
2019-02-23T01:26:00.257Z,103367.56
2019-02-23T01:28:29.490Z,103403.14
2019-02-23T01:30:58.950Z,103395.72
2019-02-23T01:33:28.139Z,103382.05
2019-02-23T01:35:57.352Z,103370.97
2019-02-23T01:38:26.852Z,103362.47
2019-02-23T01:40:56.193Z,103363.92
2019-02-23T01:43:25.349Z,103377.38
2019-02-23T01:45:54.860Z,103379.96
2019-02-23T01:48:24.079Z,103365.00
2019-02-23T01:50:53.566Z,103362.04
2019-02-23T01:53:23.039Z,103360.75
2019-02-23T01:55:52.330Z,103351.49
2019-02-23T01:58:21.539Z,103345.79
2019-02-23T02:00:50.838Z,103310.53
2019-02-23T02:03:20.020Z,103292.83
2019-02-23T02:05:49.317Z,103288.20
2019-02-23T02:08:18.765Z,103272.86
2019-02-23T02:10:47.951Z,103257.36
2019-02-23T02:13:17.209Z,103265.64
2019-02-23T02:15:46.753Z,103246.81
2019-02-23T02:18:15.986Z,103262.84
2019-02-23T02:20:45.301Z,103274.42
2019-02-23T02:23:14.668Z,103280.50
2019-02-23T02:25:43.900Z,103269.95
2019-02-23T02:28:13.189Z,103291.69
2019-02-23T02:30:42.659Z,103305.48
2019-02-23T02:33:11.875Z,103320.01
2019-02-23T02:35:41.067Z,103320.92
2019-02-23T02:38:10.413Z,103331.20
2019-02-23T02:40:39.601Z,103341.17
2019-02-23T02:43:08.777Z,103353.34
2019-02-23T02:45:38.257Z,103352.58
2019-02-23T02:48:07.564Z,103329.11
2019-02-23T02:50:36.750Z,103308.80
2019-02-23T02:53:06.160Z,103293.30
2019-02-23T02:55:35.496Z,103289.42
2019-02-23T02:58:04.695Z,103298.63
2019-02-23T03:00:34.010Z,103314.83
2019-02-23T03:03:03.207Z,103286.94
2019-02-23T03:05:32.470Z,103292.80
2019-02-23T03:08:01.815Z,103288.02
2019-02-23T03:10:31.114Z,103274.87
2019-02-23T03:13:00.339Z,103287.41
2019-02-23T03:15:29.862Z,103272.81
2019-02-23T03:17:59.050Z,103272.98
2019-02-23T03:20:36.272Z,103263.17
2019-02-23T03:22:59.444Z,103273.67
2019-02-23T03:25:28.629Z,103281.59
2019-02-23T03:27:58.007Z,103270.65
2019-02-23T03:30:27.350Z,103263.59
2019-02-23T03:32:56.522Z,103264.50
2019-02-23T03:35:25.702Z,103253.78
2019-02-23T03:37:55.049Z,103260.18
2019-02-23T03:40:24.240Z,103260.72
2019-02-23T03:42:53.430Z,103281.56
2019-02-23T03:45:22.737Z,103280.05
2019-02-23T03:47:51.926Z,103273.36
2019-02-23T03:50:21.148Z,103261.88
2019-02-23T03:52:50.458Z,103265.54
2019-02-23T03:55:19.640Z,103282.66
2019-02-23T03:57:48.919Z,103277.65
2019-02-23T04:00:18.483Z,103268.75
2019-02-23T04:02:47.678Z,103264.66
2019-02-23T04:05:16.864Z,103261.84
2019-02-23T04:07:46.336Z,103245.79
2019-02-23T04:10:15.544Z,103249.45
2019-02-23T04:12:44.767Z,103249.98
2019-02-23T04:15:14.170Z,103259.56
2019-02-23T04:17:43.346Z,103256.22
2019-02-23T04:20:12.532Z,103261.94
2019-02-23T04:22:41.966Z,103251.36
2019-02-23T04:25:11.148Z,103261.70
2019-02-23T04:27:40.412Z,103251.89
2019-02-23T04:30:09.968Z,103238.58
2019-02-23T04:32:39.152Z,103262.02
2019-02-23T04:35:08.562Z,103273.66
2019-02-23T04:37:38.074Z,103256.31
2019-02-23T04:40:07.617Z,103245.73
2019-02-23T04:42:37.054Z,103253.34
2019-02-23T04:45:06.794Z,103243.91
2019-02-23T04:47:36.754Z,103245.36
2019-02-23T04:50:06.130Z,103238.52
2019-02-23T04:52:35.610Z,103239.42
2019-02-23T04:55:04.977Z,103235.70
2019-02-23T04:57:34.419Z,103224.21
2019-02-23T05:00:03.893Z,103227.34
2019-02-23T05:02:33.190Z,103218.05
2019-02-23T05:05:04.055Z,103228.78
2019-02-23T05:07:33.936Z,103232.66
2019-02-23T05:10:03.224Z,103245.75
2019-02-23T05:12:32.678Z,103233.35
2019-02-23T05:15:02.137Z,103233.73
2019-02-23T05:17:31.766Z,103228.02
2019-02-23T05:20:01.193Z,103229.47
2019-02-23T05:22:30.424Z,103235.56
2019-02-23T05:24:59.606Z,103241.65
2019-02-23T05:27:28.964Z,103237.01
2019-02-23T05:29:58.193Z,103236.25
2019-02-23T05:32:27.410Z,103233.28
2019-02-23T05:34:56.994Z,103253.98
2019-02-23T05:37:26.321Z,103234.73
2019-02-23T05:39:55.512Z,103230.09
2019-02-23T05:42:24.808Z,103238.77
2019-02-23T05:44:54.035Z,103224.16
2019-02-23T05:47:23.232Z,103018.84
2019-02-23T05:49:52.682Z,103225.98
2019-02-23T05:52:21.913Z,103220.80
2019-02-23T05:54:51.213Z,103223.16
2019-02-23T05:57:20.506Z,103222.03
2019-02-23T05:59:49.715Z,103217.00
2019-02-23T06:02:19.013Z,103213.27
2019-02-23T06:04:51.133Z,103214.72
2019-02-23T06:07:20.385Z,103210.08
2019-02-23T06:09:49.586Z,103216.70
2019-02-23T06:12:18.895Z,103211.53
2019-02-23T06:14:48.122Z,103201.33
2019-02-23T06:17:17.548Z,103202.77
2019-02-23T06:19:46.950Z,103208.48
2019-02-23T06:22:16.181Z,103225.84
2019-02-23T06:24:45.392Z,103223.25
2019-02-23T06:27:14.720Z,103226.37
2019-02-23T06:29:44.039Z,103228.73
2019-02-23T06:32:13.226Z,103230.41
2019-02-23T06:34:42.651Z,103233.15
2019-02-23T06:37:11.989Z,103224.84
2019-02-23T06:39:41.261Z,103227.44
2019-02-23T06:42:10.578Z,103082.82
2019-02-23T06:44:39.883Z,103239.77
2019-02-23T06:47:09.072Z,103241.98
2019-02-23T06:49:38.559Z,103261.93
2019-02-23T06:52:07.906Z,103249.52
2019-02-23T06:54:37.095Z,103257.06
2019-02-23T06:57:06.365Z,103263.84
2019-02-23T06:59:35.640Z,103247.77
2019-02-23T07:02:04.822Z,103253.48
2019-02-23T07:04:34.398Z,103250.13
2019-02-23T07:07:03.701Z,103243.43
2019-02-23T07:09:32.898Z,103249.52
2019-02-23T07:12:02.344Z,103243.58
2019-02-23T07:14:31.567Z,103248.91
2019-02-23T07:17:00.755Z,103254.24
2019-02-23T07:19:30.347Z,103259.57
2019-02-23T07:21:59.608Z,103254.16
2019-02-23T07:24:28.804Z,103241.91
2019-02-23T07:26:58.241Z,103237.79
2019-02-23T07:29:27.496Z,103232.98
2019-02-23T07:31:56.689Z,103233.52
2019-02-23T07:34:25.963Z,103237.56
2019-02-23T07:36:55.197Z,103240.15
2019-02-23T07:39:24.385Z,103245.25
2019-02-23T07:41:53.851Z,103238.39
2019-02-23T07:44:23.115Z,103236.87
2019-02-23T07:46:52.306Z,103234.05
2019-02-23T07:49:21.738Z,103232.52
2019-02-23T07:51:50.993Z,103220.22
2019-02-23T07:54:20.215Z,103225.40
2019-02-23T07:56:49.641Z,103216.48
2019-02-23T07:59:18.880Z,103203.68
2019-02-23T08:01:48.089Z,103215.63
2019-02-23T08:04:17.538Z,103222.94
2019-02-23T08:06:47.601Z,103240.31
2019-02-23T08:09:16.847Z,103226.59
2019-02-23T08:11:46.257Z,103222.33
2019-02-23T08:14:15.515Z,103238.64
2019-02-23T08:16:44.702Z,103243.44
2019-02-23T08:19:14.156Z,103248.69
2019-02-23T08:21:43.386Z,103263.00
2019-02-23T08:24:12.601Z,103265.44
2019-02-23T08:26:42.363Z,103085.20
2019-02-23T08:29:11.572Z,103276.88
2019-02-23T08:31:40.764Z,103262.47
2019-02-23T08:34:10.029Z,103257.81
2019-02-23T08:36:39.534Z,103252.41
2019-02-23T08:39:08.761Z,103259.95
2019-02-23T08:41:38.345Z,103244.16
2019-02-23T08:44:07.596Z,103252.00
2019-02-23T08:46:36.816Z,103264.26
2019-02-23T08:49:06.279Z,103258.38
2019-02-23T08:51:35.595Z,103249.06
2019-02-23T08:54:04.863Z,103247.45
2019-02-23T08:56:34.360Z,103253.16
2019-02-23T08:59:03.572Z,103257.44
2019-02-23T09:01:32.764Z,103248.66
2019-02-23T09:04:02.056Z,103249.19
2019-02-23T09:06:31.330Z,103246.50
2019-02-23T09:09:00.640Z,103236.04
2019-02-23T09:11:30.021Z,103237.19
2019-02-23T09:13:59.257Z,103249.63
2019-02-23T09:16:28.432Z,103245.97
2019-02-23T09:18:57.719Z,103228.59
2019-02-23T09:21:26.967Z,103243.09
2019-02-23T09:23:56.165Z,103251.02
2019-02-23T09:26:25.439Z,103251.92
2019-02-23T09:28:54.687Z,103254.66
2019-02-23T09:31:23.919Z,103256.93
2019-02-23T09:33:53.381Z,103264.86
2019-02-23T09:36:22.615Z,103269.52
2019-02-23T09:38:51.892Z,103268.75
2019-02-23T09:41:21.169Z,103258.61
2019-02-23T09:43:50.435Z,103237.34
2019-02-23T09:46:19.725Z,103237.30
2019-02-23T09:48:49.666Z,103236.20
2019-02-23T09:51:19.009Z,103230.78
2019-02-23T09:53:48.202Z,103225.97
2019-02-23T09:56:17.576Z,103220.26
2019-02-23T09:58:48.121Z,103209.50
2019-02-23T10:01:17.437Z,103206.67
2019-02-23T10:03:46.957Z,103205.38
2019-02-23T10:06:16.186Z,103205.80
2019-02-23T10:08:45.499Z,103203.11
2019-02-23T10:11:15.003Z,103195.91
2019-02-23T10:13:44.219Z,103190.77
2019-02-23T10:16:13.431Z,103203.25
2019-02-23T10:18:43.726Z,103209.35
2019-02-23T10:21:12.971Z,103214.93
2019-02-23T10:23:43.372Z,103214.16
2019-02-23T10:26:12.669Z,103087.87
2019-02-23T10:28:41.882Z,103222.80
2019-02-23T10:31:11.082Z,103225.16
2019-02-23T10:33:47.578Z,103205.02
2019-02-23T10:36:13.653Z,103190.75
2019-02-23T10:38:43.173Z,103184.36
2019-02-23T10:41:12.358Z,103179.66
2019-02-23T10:43:41.612Z,103170.81
2019-02-23T10:46:12.172Z,103167.45
2019-02-23T10:48:41.708Z,103176.68
2019-02-23T10:51:10.970Z,103180.71
2019-02-23T10:53:40.381Z,103186.09
2019-02-23T10:56:09.690Z,103189.14
2019-02-23T10:58:38.901Z,103179.53
2019-02-23T11:01:08.782Z,103182.09
2019-02-23T11:03:38.013Z,103185.74
2019-02-23T11:06:07.618Z,103178.73
2019-02-23T11:08:37.095Z,103172.91
2019-02-23T11:11:06.534Z,103179.67
2019-02-23T11:13:36.057Z,103174.87
2019-02-23T11:16:05.613Z,103180.34
2019-02-23T11:18:35.272Z,103180.48
2019-02-23T11:21:04.513Z,103164.48
2019-02-23T11:23:43.500Z,103165.02
2019-02-23T11:26:04.967Z,103171.78
2019-02-23T11:28:34.366Z,103168.31
2019-02-23T11:31:03.605Z,103169.75
2019-02-23T11:33:32.813Z,103155.05
2019-02-23T11:36:02.263Z,103147.76
2019-02-23T11:38:31.486Z,103146.88
2019-02-23T11:41:00.712Z,103142.25
2019-02-23T11:43:30.156Z,103146.77
2019-02-23T11:45:59.556Z,103144.18
2019-02-23T11:48:28.881Z,103140.31
2019-02-23T11:50:58.217Z,103142.53
2019-02-23T11:53:27.403Z,103148.00
2019-02-23T11:55:56.613Z,103153.19
2019-02-23T11:58:26.165Z,103163.44
2019-02-23T12:00:55.473Z,103162.52
2019-02-23T12:03:24.672Z,103166.94
2019-02-23T12:05:54.186Z,103169.78
2019-02-23T12:08:23.371Z,103173.55
2019-02-23T12:10:52.594Z,103171.44
2019-02-23T12:13:21.986Z,103171.30
2019-02-23T12:15:51.322Z,103173.92
2019-02-23T12:18:22.065Z,103149.79
2019-02-23T12:20:51.472Z,103128.17
2019-02-23T12:23:20.732Z,103125.55
2019-02-23T12:25:49.946Z,103129.78
2019-02-23T12:28:19.400Z,103144.66
2019-02-23T12:30:48.614Z,103137.92
2019-02-23T12:33:17.805Z,103136.38
2019-02-23T12:35:47.271Z,103141.84
2019-02-23T12:38:16.603Z,103147.55
2019-02-23T12:40:45.845Z,103132.84
2019-02-23T12:43:15.309Z,103132.32
2019-02-23T12:45:44.615Z,103127.77
2019-02-23T12:48:13.850Z,103144.55
2019-02-23T12:50:43.176Z,103145.47
2019-02-23T12:53:12.358Z,103130.09
2019-02-23T12:55:43.039Z,103136.34
2019-02-23T12:58:12.339Z,103130.38
2019-02-23T13:00:41.525Z,103136.77
2019-02-23T13:03:10.828Z,103137.92
2019-02-23T13:05:40.333Z,103130.50
2019-02-23T13:08:09.528Z,103138.03
2019-02-23T13:10:38.808Z,103142.70
2019-02-23T13:13:19.916Z,103148.53
2019-02-23T13:16:12.403Z,103159.30
2019-02-23T13:19:25.582Z,103152.62
2019-02-23T13:22:36.163Z,103158.03
2019-02-23T13:25:48.721Z,103149.19
2019-02-23T13:29:04.449Z,103149.30
2019-02-23T13:31:44.616Z,103153.72
2019-02-23T13:34:39.426Z,103143.20
2019-02-23T13:37:38.499Z,103153.45
2019-02-23T13:40:57.836Z,103133.33
2019-02-23T13:44:00.242Z,103139.55
2019-02-23T13:47:08.643Z,103134.25
2019-02-23T13:50:15.165Z,103123.74
2019-02-23T13:53:19.694Z,103124.27
2019-02-23T13:56:29.922Z,103106.09
2019-02-23T13:59:52.101Z,103120.90
2019-02-23T14:02:53.149Z,103118.44
2019-02-23T14:05:45.077Z,103115.70
2019-02-23T14:09:09.637Z,103111.55
2019-02-23T14:12:31.951Z,103102.84
2019-02-23T14:15:40.720Z,103109.48
2019-02-23T14:18:49.520Z,103098.95
2019-02-23T14:21:54.895Z,103087.15
2019-02-23T14:24:50.011Z,103097.03
2019-02-23T14:27:59.409Z,103089.52
2019-02-23T14:31:11.739Z,103089.90
2019-02-23T14:34:28.229Z,103088.72
2019-02-23T14:37:28.595Z,103095.73
2019-02-23T14:40:42.012Z,103095.60
2019-02-23T14:43:51.070Z,103087.67
2019-02-23T14:46:58.211Z,103088.47
2019-02-23T14:50:16.346Z,103082.75
2019-02-23T14:53:22.712Z,103084.30
2019-02-23T14:56:13.468Z,103080.27
2019-02-23T14:59:26.654Z,103074.94
2019-02-23T15:02:43.015Z,103071.81
2019-02-23T15:05:49.216Z,103064.02
2019-02-23T15:08:47.335Z,103061.29
2019-02-23T15:11:57.331Z,103057.00
2019-02-23T15:15:02.069Z,103051.81
2019-02-23T15:18:07.444Z,103056.48
2019-02-23T15:21:16.266Z,103057.39
2019-02-23T15:24:24.771Z,103062.98
2019-02-23T15:27:22.468Z,103063.36
2019-02-23T15:30:29.702Z,103062.06
2019-02-23T15:33:34.974Z,103060.36
2019-02-23T15:36:29.538Z,103067.77
2019-02-23T15:40:04.276Z,103072.05
2019-02-23T15:43:17.763Z,103082.69
2019-02-23T15:46:09.335Z,103081.00
2019-02-23T15:49:01.197Z,103087.63
2019-02-23T15:51:30.433Z,103088.91
2019-02-23T15:53:59.870Z,103085.52
2019-02-23T15:56:29.316Z,103085.91
2019-02-23T15:58:58.526Z,103104.97
2019-02-23T16:01:30.256Z,103105.22
2019-02-23T16:03:59.539Z,103105.47
2019-02-23T16:06:31.536Z,103112.87
2019-02-23T16:09:00.123Z,103107.54
2019-02-23T16:11:29.390Z,103096.35
2019-02-23T16:13:58.538Z,103102.31
2019-02-23T16:16:27.983Z,103096.71
2019-02-23T16:18:57.244Z,103107.20
2019-02-23T16:21:26.436Z,103096.02
2019-02-23T16:23:55.770Z,103096.79
2019-02-23T16:26:25.127Z,103095.88
2019-02-23T16:28:55.854Z,103097.17
2019-02-23T16:31:25.239Z,103076.38
2019-02-23T16:33:54.692Z,103080.38
2019-02-23T16:36:23.926Z,103079.05
2019-02-23T16:38:53.531Z,103072.67
2019-02-23T16:41:23.351Z,103077.59
2019-02-23T16:43:52.580Z,103078.61
2019-02-23T16:46:22.154Z,103091.19
2019-02-23T16:48:51.507Z,103076.92
2019-02-23T16:51:22.190Z,103087.93
2019-02-23T16:53:51.511Z,103086.73
2019-02-23T16:56:20.929Z,103085.97
2019-02-23T16:58:50.191Z,103077.66
2019-02-23T17:01:19.425Z,103072.33
2019-02-23T17:03:48.993Z,103051.05
2019-02-23T17:06:18.184Z,103055.58
2019-02-23T17:08:47.518Z,103048.56
2019-02-23T17:11:16.833Z,103047.52
2019-02-23T17:13:46.109Z,103053.61
2019-02-23T17:16:15.417Z,103038.95
2019-02-23T17:18:44.806Z,103019.22
2019-02-23T17:21:13.988Z,103020.23
2019-02-23T17:23:43.208Z,103016.98
2019-02-23T17:26:12.611Z,103011.93
2019-02-23T17:28:41.936Z,103012.18
2019-02-23T17:31:11.194Z,103034.89
2019-02-23T17:33:40.686Z,103013.37
2019-02-23T17:36:09.879Z,103028.02
2019-02-23T17:38:39.159Z,103022.31
2019-02-23T17:41:08.585Z,103024.77
2019-02-23T17:43:40.173Z,103029.56
2019-02-23T17:46:08.843Z,103024.38
2019-02-23T17:48:38.093Z,103016.20
2019-02-23T17:51:07.306Z,103011.41
2019-02-23T17:53:37.030Z,103027.88
2019-02-23T17:56:12.165Z,103028.02
2019-02-23T17:58:37.505Z,103020.23
2019-02-23T18:01:06.981Z,103003.10
2019-02-23T18:03:36.198Z,103022.66
2019-02-23T18:06:05.396Z,103036.26
2019-02-23T18:08:34.707Z,103030.16
2019-02-23T18:11:03.962Z,103027.95
2019-02-23T18:13:33.202Z,103021.47
2019-02-23T18:16:02.774Z,103031.98
2019-02-23T18:18:31.996Z,103023.02
2019-02-23T18:21:01.462Z,103024.70
2019-02-23T18:23:30.981Z,103023.78
2019-02-23T18:26:00.241Z,103011.59
2019-02-23T18:28:29.487Z,103023.25
2019-02-23T18:31:02.267Z,103010.29
2019-02-23T18:33:31.498Z,103021.44
2019-02-23T18:36:00.697Z,103009.37
2019-02-23T18:38:30.518Z,103002.51
2019-02-23T18:40:59.801Z,102994.59
2019-02-23T18:43:28.997Z,102989.92
2019-02-23T18:45:58.412Z,102989.92
2019-02-23T18:48:27.666Z,102989.79
2019-02-23T18:50:56.864Z,102993.16
2019-02-23T18:53:26.374Z,102996.13
2019-02-23T18:55:55.853Z,102986.53
2019-02-23T18:58:25.036Z,102983.41
2019-02-23T19:00:54.487Z,102982.50
2019-02-23T19:03:23.750Z,102844.89
2019-02-23T19:05:52.979Z,102977.31
2019-02-23T19:08:22.265Z,102991.72
2019-02-23T19:10:51.609Z,102982.25
2019-02-23T19:13:20.804Z,102983.55
2019-02-23T19:15:50.131Z,102986.39
2019-02-23T19:18:19.396Z,102990.28
2019-02-23T19:20:48.585Z,102994.17
2019-02-23T19:23:17.968Z,102983.27
2019-02-23T19:25:48.331Z,102967.96
2019-02-23T19:28:17.532Z,102958.89
2019-02-23T19:30:46.996Z,102954.75
2019-02-23T19:33:16.302Z,102961.48
2019-02-23T19:35:45.509Z,102957.20
2019-02-23T19:38:15.000Z,102959.94
2019-02-23T19:40:44.279Z,102959.55
2019-02-23T19:43:13.454Z,102961.23
2019-02-23T19:45:42.792Z,102962.53
2019-02-23T19:48:12.199Z,102949.56
2019-02-23T19:50:45.141Z,102948.66
2019-02-23T19:53:14.337Z,102949.42
2019-02-23T19:55:43.576Z,102940.59
2019-02-23T19:58:12.955Z,102940.98
2019-02-23T20:00:42.216Z,102928.41
2019-02-23T20:03:11.815Z,102926.34
2019-02-23T20:05:41.190Z,102914.28
2019-02-23T20:08:12.026Z,102932.82
2019-02-23T20:10:42.921Z,102933.20
2019-02-23T20:13:12.455Z,102941.51
2019-02-23T20:15:41.656Z,102924.13
2019-02-23T20:18:11.168Z,102924.91
2019-02-23T20:20:40.533Z,102926.97
2019-02-23T20:23:09.727Z,102911.41
2019-02-23T20:25:39.101Z,102913.23
2019-02-23T20:28:08.367Z,102914.00
2019-02-23T20:30:37.559Z,102915.44
2019-02-23T20:33:07.071Z,102915.05
2019-02-23T20:35:36.556Z,102912.98
2019-02-23T20:38:05.771Z,102921.53
2019-02-23T20:40:35.209Z,102901.05
2019-02-23T20:43:04.432Z,102901.18
2019-02-23T20:45:33.630Z,102906.47
2019-02-23T20:48:03.279Z,102887.94
2019-02-23T20:50:32.573Z,102881.59
2019-02-23T20:53:01.834Z,102883.42
2019-02-23T20:55:31.315Z,102887.30
2019-02-23T20:58:00.575Z,102894.17
2019-02-23T21:00:29.907Z,102888.47
2019-02-23T21:02:59.502Z,102885.35
2019-02-23T21:05:31.005Z,102889.09
2019-02-23T21:08:00.382Z,102901.53
2019-02-23T21:10:29.663Z,102900.87
2019-02-23T21:12:59.026Z,102903.08
2019-02-23T21:15:28.837Z,102915.27
2019-02-23T21:17:58.143Z,102919.02
2019-02-23T21:20:27.706Z,102921.61
2019-02-23T21:22:57.054Z,102922.66
2019-02-23T21:25:27.610Z,102913.84
2019-02-23T21:27:56.955Z,102904.10
2019-02-23T21:30:26.379Z,102929.25
2019-02-23T21:32:55.654Z,102914.47
2019-02-23T21:35:24.861Z,102921.23
2019-02-23T21:37:54.502Z,102916.70
2019-02-23T21:40:23.795Z,102901.53
2019-02-23T21:42:52.985Z,102905.29
2019-02-23T21:45:22.416Z,102905.15
2019-02-23T21:47:51.675Z,102896.95
2019-02-23T21:50:20.879Z,102896.44
2019-02-23T21:52:50.409Z,102907.84
2019-02-23T21:55:19.762Z,102889.56
2019-02-23T21:57:48.957Z,102885.54
2019-02-23T22:00:18.416Z,102896.81
2019-02-23T22:02:47.663Z,102897.73
2019-02-23T22:05:16.925Z,102905.26
2019-02-23T22:07:46.409Z,102908.62
2019-02-23T22:10:15.741Z,102903.05
2019-02-23T22:12:45.323Z,102904.34
2019-02-23T22:15:14.691Z,102909.53
2019-02-23T22:17:43.993Z,102915.48
2019-02-23T22:20:13.249Z,102921.97
2019-02-23T22:22:42.565Z,102912.89
2019-02-23T22:25:11.820Z,102917.30
2019-02-23T22:27:41.038Z,102911.21
2019-02-23T22:30:11.959Z,102911.08
2019-02-23T22:32:41.282Z,102903.82
2019-02-23T22:35:10.522Z,102894.89
2019-02-23T22:37:39.956Z,102889.84
2019-02-23T22:40:09.432Z,102893.73
2019-02-23T22:42:38.742Z,102894.50
2019-02-23T22:45:08.277Z,102894.25
2019-02-23T22:47:37.524Z,102892.44
2019-02-23T22:50:06.990Z,102888.30
2019-02-23T22:52:36.473Z,102883.50
2019-02-23T22:55:05.794Z,102871.31
2019-02-23T22:57:40.678Z,102877.93
2019-02-23T23:00:07.516Z,102867.03
2019-02-23T23:02:36.836Z,102864.97
2019-02-23T23:05:06.406Z,102849.66
2019-02-23T23:07:35.857Z,102846.69
2019-02-23T23:10:05.154Z,102836.31
2019-02-23T23:12:34.375Z,102844.61
2019-02-23T23:15:03.679Z,102837.22
2019-02-23T23:17:33.026Z,102841.11
2019-02-23T23:20:02.246Z,102833.34
2019-02-23T23:22:31.850Z,102831.27
2019-02-23T23:25:01.200Z,102831.41
2019-02-23T23:27:30.743Z,102832.56
2019-02-23T23:30:01.489Z,102831.79
2019-02-23T23:32:30.777Z,102831.02
2019-02-23T23:35:00.284Z,102821.42
2019-02-23T23:37:29.807Z,102813.26
2019-02-23T23:39:59.012Z,102821.81
2019-02-23T23:42:28.444Z,102832.84
2019-02-23T23:44:57.674Z,102837.77
2019-02-23T23:47:26.929Z,102841.27
2019-02-23T23:49:56.416Z,102814.69
2019-02-23T23:52:25.657Z,102814.69
2019-02-23T23:54:54.921Z,102813.01
2019-02-23T23:57:24.390Z,102715.69
2019-02-23T23:59:53.623Z,102815.58
